createdAt,value
2023-01-11T00:00:11.845Z,9.54
2023-01-11T00:01:11.952Z,9.55
2023-01-11T00:02:12.090Z,9.55
2023-01-11T00:03:12.159Z,9.56
2023-01-11T00:04:12.285Z,9.57
2023-01-11T00:05:12.374Z,9.58
2023-01-11T00:06:12.484Z,9.59
2023-01-11T00:07:12.566Z,9.60
2023-01-11T00:08:12.676Z,9.61
2023-01-11T00:09:12.791Z,9.63
2023-01-11T00:10:12.922Z,9.65
2023-01-11T00:11:13.048Z,9.66
2023-01-11T00:12:13.140Z,9.68
2023-01-11T00:13:13.231Z,9.70
2023-01-11T00:14:13.341Z,9.72
2023-01-11T00:15:13.515Z,9.74
2023-01-11T00:16:13.615Z,9.76
2023-01-11T00:17:13.732Z,9.77
2023-01-11T00:18:13.941Z,9.79
2023-01-11T00:19:13.936Z,9.80
2023-01-11T00:20:14.221Z,9.82
2023-01-11T00:21:14.146Z,9.84
2023-01-11T00:22:14.246Z,9.84
2023-01-11T00:23:14.371Z,9.85
2023-01-11T00:24:14.567Z,9.87
2023-01-11T00:25:14.695Z,9.88
2023-01-11T00:26:14.709Z,9.88
2023-01-11T00:27:14.877Z,9.88
2023-01-11T00:28:14.968Z,9.87
2023-01-11T00:29:15.065Z,9.88
2023-01-11T00:30:15.224Z,9.87
2023-01-11T00:31:15.299Z,9.88
2023-01-11T00:32:15.353Z,9.88
2023-01-11T00:33:15.468Z,9.88
2023-01-11T00:34:15.592Z,9.87
2023-01-11T00:35:15.815Z,9.88
2023-01-11T00:36:15.798Z,9.90
2023-01-11T00:37:15.930Z,9.91
2023-01-11T00:38:16.047Z,9.92
2023-01-11T00:39:16.171Z,9.93
2023-01-11T00:40:16.306Z,9.94
2023-01-11T00:41:16.396Z,9.96
2023-01-11T00:42:16.489Z,9.97
2023-01-11T00:43:16.608Z,9.97
2023-01-11T00:44:16.706Z,9.99
2023-01-11T00:45:16.834Z,10.01
2023-01-11T00:46:16.995Z,10.03
2023-01-11T00:47:17.112Z,10.05
2023-01-11T00:48:17.235Z,10.07
2023-01-11T00:49:17.362Z,10.08
2023-01-11T00:50:17.661Z,10.09
2023-01-11T00:51:17.681Z,10.11
2023-01-11T00:52:17.812Z,10.13
2023-01-11T00:53:17.891Z,10.15
2023-01-11T00:54:18.068Z,10.17
2023-01-11T00:55:18.262Z,10.18
2023-01-11T00:56:18.293Z,10.20
2023-01-11T00:57:18.419Z,10.21
2023-01-11T00:58:18.562Z,10.22
2023-01-11T00:59:18.772Z,10.23
2023-01-11T01:00:18.864Z,10.25
2023-01-11T01:01:18.990Z,10.27
2023-01-11T01:02:19.090Z,10.28
2023-01-11T01:03:19.193Z,10.30
2023-01-11T01:04:19.476Z,10.31
2023-01-11T01:05:19.459Z,10.31
2023-01-11T01:06:19.581Z,10.31
2023-01-11T01:07:19.661Z,10.31
2023-01-11T01:08:19.782Z,10.32
2023-01-11T01:09:19.939Z,10.32
2023-01-11T01:10:20.086Z,10.32
2023-01-11T01:11:20.159Z,10.33
2023-01-11T01:12:20.307Z,10.34
2023-01-11T01:13:20.455Z,10.34
2023-01-11T01:14:20.588Z,10.35
2023-01-11T01:15:20.734Z,10.36
2023-01-11T01:16:20.833Z,10.36
2023-01-11T01:17:20.916Z,10.37
2023-01-11T01:18:20.998Z,10.38
2023-01-11T01:19:21.173Z,10.41
2023-01-11T01:20:21.401Z,10.42
2023-01-11T01:21:21.357Z,10.43
2023-01-11T01:22:21.487Z,10.45
2023-01-11T01:23:21.621Z,10.46
2023-01-11T01:24:21.763Z,10.47
2023-01-11T01:25:21.969Z,10.48
2023-01-11T01:26:22.047Z,10.50
2023-01-11T01:27:22.195Z,10.51
2023-01-11T01:28:22.428Z,10.51
2023-01-11T01:29:22.431Z,10.52
2023-01-11T01:30:22.607Z,10.52
2023-01-11T01:31:22.672Z,10.54
2023-01-11T01:32:22.793Z,10.56
2023-01-11T01:33:22.940Z,10.60
2023-01-11T01:34:23.060Z,10.63
2023-01-11T01:35:23.355Z,10.65
2023-01-11T01:36:23.388Z,10.67
2023-01-11T01:37:23.445Z,10.68
2023-01-11T01:38:23.572Z,10.70
2023-01-11T01:39:23.707Z,10.71
2023-01-11T01:40:23.913Z,10.72
2023-01-11T01:41:24.004Z,10.73
2023-01-11T01:42:24.170Z,10.76
2023-01-11T01:43:24.240Z,10.78
2023-01-11T01:44:24.370Z,10.80
2023-01-11T01:45:24.528Z,10.82
2023-01-11T01:46:24.644Z,10.84
2023-01-11T01:47:24.748Z,10.86
2023-01-11T01:48:24.847Z,10.87
2023-01-11T01:49:24.991Z,10.88
2023-01-11T01:50:25.185Z,10.89
2023-01-11T01:51:25.360Z,10.91
2023-01-11T01:52:25.406Z,10.93
2023-01-11T01:53:25.528Z,10.95
2023-01-11T01:54:25.610Z,10.96
2023-01-11T01:55:25.846Z,10.96
2023-01-11T01:56:25.865Z,10.95
2023-01-11T01:57:25.996Z,10.94
2023-01-11T01:58:26.142Z,10.94
2023-01-11T01:59:26.303Z,10.95
2023-01-11T02:00:26.487Z,10.96
2023-01-11T02:01:26.584Z,10.96
2023-01-11T02:02:26.738Z,10.96
2023-01-11T02:03:26.830Z,10.95
2023-01-11T02:04:26.959Z,10.94
2023-01-11T02:05:27.115Z,10.93
2023-01-11T02:06:27.242Z,10.93
2023-01-11T02:07:27.360Z,10.93
2023-01-11T02:08:27.492Z,10.94
2023-01-11T02:09:27.615Z,10.95
2023-01-11T02:10:27.863Z,10.95
2023-01-11T02:11:27.904Z,10.94
2023-01-11T02:12:30.202Z,10.91
2023-01-11T02:13:28.134Z,10.87
2023-01-11T02:14:28.276Z,10.82
2023-01-11T02:15:28.554Z,10.75
2023-01-11T02:16:28.520Z,10.67
2023-01-11T02:17:28.633Z,10.57
2023-01-11T02:18:28.790Z,10.47
2023-01-11T02:19:28.910Z,10.39
2023-01-11T02:20:29.230Z,10.32
2023-01-11T02:21:29.219Z,10.27
2023-01-11T02:22:29.399Z,10.23
2023-01-11T02:23:29.434Z,10.19
2023-01-11T02:24:29.568Z,10.15
2023-01-11T02:25:29.983Z,10.14
2023-01-11T02:26:29.858Z,10.13
2023-01-11T02:27:30.070Z,10.12
2023-01-11T02:28:30.116Z,10.12
2023-01-11T02:29:30.255Z,10.14
2023-01-11T02:30:30.406Z,10.18
2023-01-11T02:31:30.566Z,10.23
2023-01-11T02:32:30.669Z,10.27
2023-01-11T02:33:30.768Z,10.31
2023-01-11T02:34:30.892Z,10.36
2023-01-11T02:35:31.049Z,10.40
2023-01-11T02:36:31.181Z,10.44
2023-01-11T02:37:31.249Z,10.49
2023-01-11T02:38:31.388Z,10.53
2023-01-11T02:39:31.572Z,10.56
2023-01-11T02:40:31.668Z,10.60
2023-01-11T02:41:31.806Z,10.63
2023-01-11T02:42:31.936Z,10.67
2023-01-11T02:43:32.037Z,10.70
2023-01-11T02:44:32.185Z,10.74
2023-01-11T02:45:32.336Z,10.77
2023-01-11T02:46:32.482Z,10.79
2023-01-11T02:47:32.559Z,10.81
2023-01-11T02:48:32.675Z,10.82
2023-01-11T02:49:32.807Z,10.83
2023-01-11T02:50:33.038Z,10.83
2023-01-11T02:51:33.044Z,10.83
2023-01-11T02:52:33.192Z,10.84
2023-01-11T02:53:33.355Z,10.83
2023-01-11T02:54:33.479Z,10.83
2023-01-11T02:55:33.619Z,10.83
2023-01-11T02:56:33.674Z,10.83
2023-01-11T02:57:33.842Z,10.83
2023-01-11T02:58:33.945Z,10.84
2023-01-11T02:59:34.112Z,10.84
2023-01-11T03:00:34.245Z,10.85
2023-01-11T03:01:34.431Z,10.87
2023-01-11T03:02:34.494Z,10.88
2023-01-11T03:03:34.564Z,10.88
2023-01-11T03:04:34.695Z,10.89
2023-01-11T03:05:34.860Z,10.89
2023-01-11T03:06:35.074Z,10.91
2023-01-11T03:07:35.083Z,10.93
2023-01-11T03:08:35.216Z,10.95
2023-01-11T03:09:35.375Z,10.96
2023-01-11T03:10:35.508Z,10.96
2023-01-11T03:11:35.579Z,10.96
2023-01-11T03:12:35.724Z,10.93
2023-01-11T03:13:35.840Z,10.89
2023-01-11T03:14:35.976Z,10.85
2023-01-11T03:15:36.235Z,10.80
2023-01-11T03:16:36.274Z,10.75
2023-01-11T03:17:36.395Z,10.71
2023-01-11T03:18:36.536Z,10.67
2023-01-11T03:19:36.710Z,10.64
2023-01-11T03:20:36.863Z,10.61
2023-01-11T03:21:36.901Z,10.58
2023-01-11T03:22:37.080Z,10.55
2023-01-11T03:23:37.179Z,10.53
2023-01-11T03:24:37.287Z,10.52
2023-01-11T03:25:37.478Z,10.49
2023-01-11T03:26:37.545Z,10.47
2023-01-11T03:27:37.675Z,10.43
2023-01-11T03:28:37.786Z,10.39
2023-01-11T03:29:37.904Z,10.35
2023-01-11T03:30:38.078Z,10.31
2023-01-11T03:31:38.248Z,10.28
2023-01-11T03:32:38.271Z,10.26
2023-01-11T03:33:38.415Z,10.24
2023-01-11T03:34:38.530Z,10.23
2023-01-11T03:35:38.718Z,10.21
2023-01-11T03:36:38.770Z,10.20
2023-01-11T03:37:39.009Z,10.20
2023-01-11T03:38:38.992Z,10.21
2023-01-11T03:39:39.115Z,10.21
2023-01-11T03:40:39.263Z,10.22
2023-01-11T03:41:39.322Z,10.22
2023-01-11T03:42:39.529Z,10.23
2023-01-11T03:43:39.521Z,10.23
2023-01-11T03:44:39.622Z,10.23
2023-01-11T03:45:39.865Z,10.25
2023-01-11T03:46:39.893Z,10.26
2023-01-11T03:47:39.973Z,10.28
2023-01-11T03:48:40.134Z,10.28
2023-01-11T03:49:40.183Z,10.28
2023-01-11T03:50:40.314Z,10.28
2023-01-11T03:51:40.385Z,10.28
2023-01-11T03:52:40.524Z,10.27
2023-01-11T03:53:40.608Z,10.25
2023-01-11T03:54:40.691Z,10.24
2023-01-11T03:55:40.798Z,10.23
2023-01-11T03:56:40.947Z,10.24
2023-01-11T03:57:41.012Z,10.24
2023-01-11T03:58:41.153Z,10.24
2023-01-11T03:59:41.248Z,10.23
2023-01-11T04:00:41.371Z,10.22
2023-01-11T04:01:41.534Z,10.22
2023-01-11T04:02:41.536Z,10.23
2023-01-11T04:03:41.699Z,10.24
2023-01-11T04:04:41.756Z,10.25
2023-01-11T04:05:41.863Z,10.26
2023-01-11T04:06:42.056Z,10.26
2023-01-11T04:07:42.073Z,10.27
2023-01-11T04:08:42.207Z,10.28
2023-01-11T04:09:42.297Z,10.28
2023-01-11T04:10:42.451Z,10.29
2023-01-11T04:11:42.627Z,10.29
2023-01-11T04:12:42.656Z,10.30
2023-01-11T04:13:42.764Z,10.30
2023-01-11T04:14:42.907Z,10.29
2023-01-11T04:15:42.983Z,10.30
2023-01-11T04:16:43.247Z,10.31
2023-01-11T04:17:43.248Z,10.33
2023-01-11T04:18:43.384Z,10.34
2023-01-11T04:19:43.515Z,10.36
2023-01-11T04:20:43.608Z,10.36
2023-01-11T04:21:43.775Z,10.36
2023-01-11T04:22:43.839Z,10.37
2023-01-11T04:23:43.949Z,10.37
2023-01-11T04:24:44.073Z,10.38
2023-01-11T04:25:44.150Z,10.40
2023-01-11T04:26:44.321Z,10.41
2023-01-11T04:27:44.409Z,10.42
2023-01-11T04:28:44.510Z,10.43
2023-01-11T04:29:44.641Z,10.44
2023-01-11T04:30:44.709Z,10.46
2023-01-11T04:31:44.967Z,10.47
2023-01-11T04:32:45.029Z,10.48
2023-01-11T04:33:45.050Z,10.49
2023-01-11T04:34:45.158Z,10.48
2023-01-11T04:35:45.299Z,10.47
2023-01-11T04:36:45.435Z,10.46
2023-01-11T04:37:45.460Z,10.46
2023-01-11T04:38:45.631Z,10.46
2023-01-11T04:39:45.729Z,10.47
2023-01-11T04:40:45.782Z,10.49
2023-01-11T04:41:45.966Z,10.50
2023-01-11T04:42:46.098Z,10.49
2023-01-11T04:43:46.112Z,10.49
2023-01-11T04:44:46.219Z,10.49
2023-01-11T04:45:46.374Z,10.50
2023-01-11T04:46:46.461Z,10.50
2023-01-11T04:47:46.514Z,10.50
2023-01-11T04:48:46.628Z,10.48
2023-01-11T04:49:46.776Z,10.46
2023-01-11T04:50:46.896Z,10.43
2023-01-11T04:51:46.946Z,10.40
2023-01-11T04:52:47.070Z,10.37
2023-01-11T04:53:47.198Z,10.34
2023-01-11T04:54:47.276Z,10.31
2023-01-11T04:55:47.402Z,10.28
2023-01-11T04:56:47.528Z,10.26
2023-01-11T04:57:47.769Z,10.23
2023-01-11T04:58:47.757Z,10.21
2023-01-11T04:59:47.869Z,10.19
2023-01-11T05:00:48.000Z,10.16
2023-01-11T05:01:48.088Z,10.13
2023-01-11T05:02:48.319Z,10.11
2023-01-11T05:03:48.325Z,10.09
2023-01-11T05:04:48.396Z,10.07
2023-01-11T05:05:48.518Z,10.05
2023-01-11T05:06:48.637Z,10.03
2023-01-11T05:07:48.750Z,10.00
2023-01-11T05:08:48.831Z,9.98
2023-01-11T05:09:48.935Z,9.97
2023-01-11T05:10:49.072Z,9.96
2023-01-11T05:11:49.256Z,9.95
2023-01-11T05:12:49.408Z,9.94
2023-01-11T05:13:49.493Z,9.93
2023-01-11T05:14:49.642Z,9.92
2023-01-11T05:15:49.750Z,9.91
2023-01-11T05:16:49.907Z,9.90
2023-01-11T05:17:49.968Z,9.90
2023-01-11T05:18:50.050Z,9.89
2023-01-11T05:19:50.210Z,9.89
2023-01-11T05:20:50.291Z,9.88
2023-01-11T05:21:50.458Z,9.88
2023-01-11T05:22:50.706Z,9.87
2023-01-11T05:23:50.686Z,9.87
2023-01-11T05:24:50.824Z,9.86
2023-01-11T05:25:50.939Z,9.85
2023-01-11T05:26:51.087Z,9.84
2023-01-11T05:27:51.247Z,9.84
2023-01-11T05:28:51.269Z,9.85
2023-01-11T05:29:51.414Z,9.85
2023-01-11T05:30:51.575Z,9.85
2023-01-11T05:31:51.775Z,9.85
2023-01-11T05:32:51.872Z,9.85
2023-01-11T05:33:51.987Z,9.85
2023-01-11T05:34:52.025Z,9.84
2023-01-11T05:35:54.413Z,9.83
2023-01-11T05:36:52.257Z,9.83
2023-01-11T05:37:52.406Z,9.84
2023-01-11T05:38:52.505Z,9.84
2023-01-11T05:39:52.687Z,9.84
2023-01-11T05:40:52.741Z,9.84
2023-01-11T05:41:52.848Z,9.84
2023-01-11T05:42:54.493Z,9.84
2023-01-11T05:43:53.081Z,9.84
2023-01-11T05:44:53.173Z,9.85
2023-01-11T05:45:53.434Z,9.85
2023-01-11T05:46:53.460Z,9.85
2023-01-11T05:47:53.572Z,9.84
2023-01-11T05:48:53.671Z,9.84
2023-01-11T05:49:53.803Z,9.83
2023-01-11T05:50:53.931Z,9.83
2023-01-11T05:51:54.008Z,9.82
2023-01-11T05:52:54.172Z,9.82
2023-01-11T05:53:54.280Z,9.82
2023-01-11T05:54:54.370Z,9.82
2023-01-11T05:55:54.607Z,9.82
2023-01-11T05:56:54.638Z,9.82
2023-01-11T05:57:54.799Z,9.82
2023-01-11T05:58:54.897Z,9.82
2023-01-11T05:59:55.049Z,9.83
2023-01-11T06:00:55.157Z,9.83
2023-01-11T06:01:55.357Z,9.83
2023-01-11T06:02:55.532Z,9.83
2023-01-11T06:03:55.507Z,9.83
2023-01-11T06:04:55.683Z,9.84
2023-01-11T06:05:55.782Z,9.85
2023-01-11T06:06:55.955Z,9.86
2023-01-11T06:07:55.988Z,9.87
2023-01-11T06:08:56.081Z,9.88
2023-01-11T06:09:56.236Z,9.88
2023-01-11T06:10:56.328Z,9.88
2023-01-11T06:11:56.486Z,9.88
2023-01-11T06:12:56.632Z,9.88
2023-01-11T06:13:56.679Z,9.88
2023-01-11T06:14:56.856Z,9.89
2023-01-11T06:15:56.947Z,9.89
2023-01-11T06:16:57.145Z,9.90
2023-01-11T06:17:57.185Z,9.90
2023-01-11T06:18:57.355Z,9.91
2023-01-11T06:19:57.517Z,9.92
2023-01-11T06:20:57.493Z,9.93
2023-01-11T06:21:57.634Z,9.94
2023-01-11T06:22:57.864Z,9.94
2023-01-11T06:23:57.942Z,9.94
2023-01-11T06:24:58.053Z,9.94
2023-01-11T06:25:58.185Z,9.93
2023-01-11T06:26:58.307Z,9.93
2023-01-11T06:27:58.454Z,9.92
2023-01-11T06:28:58.514Z,9.92
2023-01-11T06:29:58.681Z,9.91
2023-01-11T06:30:58.927Z,9.91
2023-01-11T06:31:58.933Z,9.91
2023-01-11T06:32:58.995Z,9.90
2023-01-11T06:33:59.203Z,9.90
2023-01-11T06:34:59.241Z,9.90
2023-01-11T06:35:59.388Z,9.89
2023-01-11T06:36:59.492Z,9.89
2023-01-11T06:37:59.571Z,9.88
2023-01-11T06:38:59.737Z,9.87
2023-01-11T06:39:59.896Z,9.87
2023-01-11T06:41:00.005Z,9.86
2023-01-11T06:42:00.151Z,9.87
2023-01-11T06:43:00.811Z,9.87
2023-01-11T06:44:00.324Z,9.87
2023-01-11T06:45:00.487Z,9.87
2023-01-11T06:46:00.604Z,9.87
2023-01-11T06:47:00.715Z,9.88
2023-01-11T06:48:00.802Z,9.88
2023-01-11T06:49:00.997Z,9.89
2023-01-11T06:50:01.081Z,9.89
2023-01-11T06:51:01.161Z,9.89
2023-01-11T06:52:01.340Z,9.88
2023-01-11T06:53:01.443Z,9.87
2023-01-11T06:54:01.596Z,9.85
2023-01-11T06:55:01.668Z,9.84
2023-01-11T06:56:01.850Z,9.84
2023-01-11T06:57:02.011Z,9.83
2023-01-11T06:58:02.060Z,9.82
2023-01-11T06:59:02.152Z,9.81
2023-01-11T07:00:02.338Z,9.80
2023-01-11T07:01:03.511Z,9.79
2023-01-11T07:02:02.552Z,9.77
2023-01-11T07:03:02.620Z,9.76
2023-01-11T07:04:02.862Z,9.74
2023-01-11T07:05:02.948Z,9.73
2023-01-11T07:06:03.007Z,9.71
2023-01-11T07:07:03.133Z,9.70
2023-01-11T07:08:03.284Z,9.69
2023-01-11T07:09:03.380Z,9.69
2023-01-11T07:10:03.553Z,9.68
2023-01-11T07:11:03.634Z,9.68
2023-01-11T07:12:03.741Z,9.67
2023-01-11T07:13:03.875Z,9.66
2023-01-11T07:14:03.987Z,9.65
2023-01-11T07:15:04.222Z,9.64
2023-01-11T07:16:04.270Z,9.63
2023-01-11T07:17:04.399Z,9.62
2023-01-11T07:18:04.617Z,9.61
2023-01-11T07:19:04.640Z,9.60
2023-01-11T07:20:04.720Z,9.60
2023-01-11T07:21:04.794Z,9.59
2023-01-11T07:22:04.928Z,9.59
2023-01-11T07:23:05.029Z,9.59
2023-01-11T07:24:05.241Z,9.58
2023-01-11T07:25:05.302Z,9.57
2023-01-11T07:26:05.457Z,9.55
2023-01-11T07:27:05.614Z,9.55
2023-01-11T07:28:05.678Z,9.54
2023-01-11T07:29:05.758Z,9.52
2023-01-11T07:30:06.972Z,9.51
2023-01-11T07:31:06.004Z,9.50
2023-01-11T07:32:07.194Z,9.48
2023-01-11T07:33:06.237Z,9.47
2023-01-11T07:34:06.409Z,9.46
2023-01-11T07:35:06.441Z,9.46
2023-01-11T07:36:06.638Z,9.45
2023-01-11T07:37:06.646Z,9.44
2023-01-11T07:38:06.752Z,9.44
2023-01-11T07:39:06.884Z,9.44
2023-01-11T07:40:07.107Z,9.43
2023-01-11T07:41:07.249Z,9.42
2023-01-11T07:42:07.321Z,9.41
2023-01-11T07:43:07.358Z,9.40
2023-01-11T07:44:07.532Z,9.39
2023-01-11T07:45:07.569Z,9.38
2023-01-11T07:46:07.784Z,9.37
2023-01-11T07:47:07.866Z,9.36
2023-01-11T07:48:07.968Z,9.35
2023-01-11T07:49:08.071Z,9.34
2023-01-11T07:50:08.215Z,9.33
2023-01-11T07:51:08.318Z,9.33
2023-01-11T07:52:08.353Z,9.32
2023-01-11T07:53:08.496Z,9.32
2023-01-11T07:54:08.595Z,9.31
2023-01-11T07:55:08.764Z,9.30
2023-01-11T07:56:08.888Z,9.30
2023-01-11T07:57:08.965Z,9.30
2023-01-11T07:58:09.151Z,9.29
2023-01-11T07:59:09.242Z,9.29
2023-01-11T08:00:09.353Z,9.28
2023-01-11T08:01:09.513Z,9.27
2023-01-11T08:02:09.587Z,9.27
2023-01-11T08:03:09.877Z,9.27
2023-01-11T08:04:09.804Z,9.27
2023-01-11T08:05:09.888Z,9.27
2023-01-11T08:06:10.026Z,9.27
2023-01-11T08:07:10.111Z,9.28
2023-01-11T08:08:10.272Z,9.28
2023-01-11T08:09:10.362Z,9.29
2023-01-11T08:10:10.493Z,9.29
2023-01-11T08:11:10.622Z,9.29
2023-01-11T08:12:10.701Z,9.28
2023-01-11T08:13:10.818Z,9.28
2023-01-11T08:14:10.947Z,9.28
2023-01-11T08:15:11.089Z,9.28
2023-01-11T08:16:11.369Z,9.29
2023-01-11T08:17:11.313Z,9.30
2023-01-11T08:18:11.500Z,9.31
2023-01-11T08:19:11.628Z,9.32
2023-01-11T08:20:11.713Z,9.34
2023-01-11T08:21:14.104Z,9.35
2023-01-11T08:22:11.947Z,9.36
2023-01-11T08:23:12.049Z,9.36
2023-01-11T08:24:12.227Z,9.37
2023-01-11T08:25:12.268Z,9.37
2023-01-11T08:26:12.431Z,9.36
2023-01-11T08:27:13.521Z,9.36
2023-01-11T08:28:12.645Z,9.36
2023-01-11T08:29:12.803Z,9.36
2023-01-11T08:30:12.957Z,9.36
2023-01-11T08:31:13.123Z,9.36
2023-01-11T08:32:13.186Z,9.36
2023-01-11T08:33:13.373Z,9.37
2023-01-11T08:34:13.385Z,9.36
2023-01-11T08:35:13.554Z,9.36
2023-01-11T08:36:13.705Z,9.36
2023-01-11T08:37:13.822Z,9.36
2023-01-11T08:38:13.855Z,9.35
2023-01-11T08:39:13.956Z,9.35
2023-01-11T08:40:14.052Z,9.34
2023-01-11T08:41:14.223Z,9.32
2023-01-11T08:42:14.313Z,9.32
2023-01-11T08:43:14.443Z,9.32
2023-01-11T08:44:14.997Z,9.32
2023-01-11T08:45:14.662Z,9.32
2023-01-11T08:46:14.799Z,9.32
2023-01-11T08:47:14.901Z,9.33
2023-01-11T08:48:15.018Z,9.33
2023-01-11T08:49:15.130Z,9.33
2023-01-11T08:50:15.370Z,9.34
2023-01-11T08:51:15.339Z,9.35
2023-01-11T08:52:15.477Z,9.35
2023-01-11T08:53:15.589Z,9.35
2023-01-11T08:54:15.685Z,9.35
2023-01-11T08:55:15.789Z,9.35
2023-01-11T08:56:15.916Z,9.35
2023-01-11T08:57:16.000Z,9.35
2023-01-11T08:58:16.171Z,9.35
2023-01-11T08:59:16.233Z,9.36
2023-01-11T09:00:16.386Z,9.37
2023-01-11T09:01:16.573Z,9.38
2023-01-11T09:02:16.637Z,9.39
2023-01-11T09:03:16.726Z,9.40
2023-01-11T09:04:24.745Z,9.41
2023-01-11T09:05:18.477Z,9.41
2023-01-11T09:06:17.101Z,9.42
2023-01-11T09:07:17.198Z,9.42
2023-01-11T09:08:17.343Z,9.42
2023-01-11T09:09:17.420Z,9.41
2023-01-11T09:10:17.580Z,9.40
2023-01-11T09:11:17.640Z,9.39
2023-01-11T09:12:17.743Z,9.39
2023-01-11T09:13:17.866Z,9.39
2023-01-11T09:14:18.011Z,9.40
2023-01-11T09:15:18.135Z,9.40
2023-01-11T09:16:18.291Z,9.39
2023-01-11T09:17:18.396Z,9.37
2023-01-11T09:18:18.471Z,9.36
2023-01-11T09:19:18.588Z,9.36
2023-01-11T09:20:18.785Z,9.36
2023-01-11T09:21:18.881Z,9.36
2023-01-11T09:22:18.962Z,9.35
2023-01-11T09:23:19.122Z,9.33
2023-01-11T09:24:19.349Z,9.31
2023-01-11T09:25:19.519Z,9.30
2023-01-11T09:26:19.489Z,9.29
2023-01-11T09:27:19.754Z,9.28
2023-01-11T09:28:19.765Z,9.27
2023-01-11T09:29:19.919Z,9.26
2023-01-11T09:30:19.984Z,9.25
2023-01-11T09:31:20.142Z,9.24
2023-01-11T09:32:20.178Z,9.22
2023-01-11T09:33:20.274Z,9.21
2023-01-11T09:34:20.441Z,9.19
2023-01-11T09:35:20.584Z,9.18
2023-01-11T09:36:20.671Z,9.18
2023-01-11T09:37:20.753Z,9.18
2023-01-11T09:38:20.865Z,9.18
2023-01-11T09:39:20.998Z,9.17
2023-01-11T09:40:21.237Z,9.17
2023-01-11T09:41:21.239Z,9.17
2023-01-11T09:42:21.350Z,9.15
2023-01-11T09:43:21.493Z,9.14
2023-01-11T09:44:21.706Z,9.15
2023-01-11T09:45:21.789Z,9.15
2023-01-11T09:46:21.892Z,9.15
2023-01-11T09:47:22.005Z,9.14
2023-01-11T09:48:22.113Z,9.13
2023-01-11T09:49:22.191Z,9.12
2023-01-11T09:50:22.335Z,9.11
2023-01-11T09:51:22.424Z,9.10
2023-01-11T09:52:22.529Z,9.09
2023-01-11T09:53:22.668Z,9.08
2023-01-11T09:54:22.739Z,9.07
2023-01-11T09:55:22.887Z,9.07
2023-01-11T09:56:22.950Z,9.06
2023-01-11T09:57:23.104Z,9.06
2023-01-11T09:58:23.177Z,9.06
2023-01-11T09:59:23.293Z,9.06
2023-01-11T10:00:23.437Z,9.06
2023-01-11T10:01:23.501Z,9.06
2023-01-11T10:02:23.590Z,9.05
2023-01-11T10:03:23.738Z,9.05
2023-01-11T10:04:23.971Z,9.04
2023-01-11T10:05:24.121Z,9.03
2023-01-11T10:06:24.067Z,9.02
2023-01-11T10:07:24.237Z,9.01
2023-01-11T10:18:22.525Z,8.95
2023-01-11T10:18:25.680Z,8.95
2023-01-11T10:18:39.150Z,8.94
2023-01-11T10:18:40.054Z,8.95
2023-01-11T10:18:50.044Z,8.93
2023-01-11T10:19:39.874Z,8.91
2023-01-11T10:20:26.792Z,8.90
2023-01-11T10:21:25.799Z,8.88
2023-01-11T10:22:25.902Z,8.87
2023-01-11T10:23:25.993Z,8.86
2023-01-11T10:24:26.723Z,8.84
2023-01-11T10:25:26.222Z,8.82
2023-01-11T10:26:26.319Z,8.80
2023-01-11T10:27:26.449Z,8.80
2023-01-11T10:28:26.526Z,8.80
2023-01-11T10:29:26.848Z,8.81
2023-01-11T10:30:26.796Z,8.82
2023-01-11T10:31:26.937Z,8.84
2023-01-11T10:32:26.956Z,8.86
2023-01-11T10:33:27.131Z,8.86
2023-01-11T10:34:27.275Z,8.86
2023-01-11T10:35:27.348Z,8.86
2023-01-11T10:36:29.344Z,8.89
2023-01-11T10:37:27.559Z,8.94
2023-01-11T10:38:27.616Z,9.00
2023-01-11T10:39:28.251Z,9.06
2023-01-11T10:40:27.848Z,9.09
2023-01-11T10:41:27.946Z,9.11
2023-01-11T10:42:28.077Z,9.12
2023-01-11T10:43:28.745Z,9.12
2023-01-11T10:44:28.395Z,9.10
2023-01-11T10:45:28.673Z,9.08
2023-01-11T10:46:28.523Z,9.05
2023-01-11T10:47:28.636Z,9.04
2023-01-11T10:48:28.725Z,9.03
2023-01-11T10:49:28.846Z,9.02
2023-01-11T10:50:29.000Z,9.00
2023-01-11T10:51:29.074Z,8.97
2023-01-11T10:52:29.254Z,8.95
2023-01-11T10:53:29.300Z,8.96
2023-01-11T10:54:29.416Z,8.98
2023-01-11T10:55:29.520Z,9.01
2023-01-11T10:56:29.615Z,9.00
2023-01-11T10:57:29.766Z,9.00
2023-01-11T10:58:29.843Z,9.01
2023-01-11T10:59:29.953Z,9.02
2023-01-11T11:00:30.053Z,9.03
2023-01-11T11:01:30.157Z,9.05
2023-01-11T11:02:30.258Z,9.07
2023-01-11T11:03:30.359Z,9.11
2023-01-11T11:04:30.569Z,9.17
2023-01-11T11:05:30.617Z,9.26
2023-01-11T11:06:30.700Z,9.34
2023-01-11T11:07:30.819Z,9.40
2023-01-11T11:08:30.933Z,9.43
2023-01-11T11:09:31.039Z,9.44
2023-01-11T11:10:31.159Z,9.45
2023-01-11T11:11:31.289Z,9.45
2023-01-11T11:12:31.371Z,9.46
2023-01-11T11:13:31.457Z,9.49
2023-01-11T11:14:31.619Z,9.51
2023-01-11T11:15:31.678Z,9.55
2023-01-11T11:16:31.856Z,9.58
2023-01-11T11:17:31.890Z,9.58
2023-01-11T11:18:32.013Z,9.59
2023-01-11T11:19:32.108Z,9.59
2023-01-11T11:20:32.248Z,9.56
2023-01-11T11:21:32.361Z,9.52
2023-01-11T11:22:32.490Z,9.50
2023-01-11T11:23:32.622Z,9.49
2023-01-11T11:24:32.837Z,9.49
2023-01-11T11:25:32.804Z,9.49
2023-01-11T11:26:32.963Z,9.51
2023-01-11T11:27:33.015Z,9.54
2023-01-11T11:28:33.114Z,9.55
2023-01-11T11:29:33.218Z,9.56
2023-01-11T11:30:33.364Z,9.56
2023-01-11T11:31:33.503Z,9.57
2023-01-11T11:32:36.380Z,9.58
2023-01-11T11:33:33.762Z,9.56
2023-01-11T11:34:33.816Z,9.53
2023-01-11T11:35:33.968Z,9.51
2023-01-11T11:36:34.108Z,9.52
2023-01-11T11:37:34.200Z,9.55
2023-01-11T11:38:34.277Z,9.57
2023-01-11T11:39:34.382Z,9.61
2023-01-11T11:40:34.561Z,9.65
2023-01-11T11:41:34.600Z,9.68
2023-01-11T11:42:34.702Z,9.69
2023-01-11T11:43:34.817Z,9.65
2023-01-11T11:44:34.983Z,9.58
2023-01-11T11:45:35.115Z,9.53
2023-01-11T11:46:35.149Z,9.50
2023-01-11T11:47:35.252Z,9.45
2023-01-11T11:48:35.475Z,9.39
2023-01-11T11:49:35.503Z,9.35
2023-01-11T11:50:45.267Z,9.33
2023-01-11T11:51:36.758Z,9.31
2023-01-11T11:52:35.840Z,9.29
2023-01-11T11:53:35.945Z,9.27
2023-01-11T11:54:36.117Z,9.26
2023-01-11T11:55:36.148Z,9.26
2023-01-11T11:56:36.287Z,9.28
2023-01-11T11:57:36.432Z,9.30
2023-01-11T11:58:36.478Z,9.31
2023-01-11T11:59:36.625Z,9.31
2023-01-11T12:00:36.736Z,9.29
2023-01-11T12:01:36.855Z,9.26
2023-01-11T12:02:36.944Z,9.24
2023-01-11T12:03:37.070Z,9.22
2023-01-11T12:04:37.238Z,9.19
2023-01-11T12:05:37.350Z,9.15
2023-01-11T12:06:37.437Z,9.11
2023-01-11T12:07:49.681Z,9.08
2023-01-11T12:08:38.646Z,9.04
2023-01-11T12:09:37.783Z,9.03
2023-01-11T12:10:37.838Z,9.02
2023-01-11T12:11:37.968Z,9.04
2023-01-11T12:12:38.091Z,9.08
2023-01-11T12:13:38.249Z,9.15
2023-01-11T12:14:38.324Z,9.26
2023-01-11T12:15:38.525Z,9.35
2023-01-11T12:16:38.537Z,9.44
2023-01-11T12:17:38.592Z,9.51
2023-01-11T12:18:38.722Z,9.58
2023-01-11T12:19:38.853Z,9.66
2023-01-11T12:20:38.961Z,9.74
2023-01-11T12:21:39.012Z,9.80
2023-01-11T12:22:39.137Z,9.86
2023-01-11T12:23:39.221Z,9.92
2023-01-11T12:24:39.549Z,9.97
2023-01-11T12:25:39.502Z,10.00
2023-01-11T12:26:39.729Z,10.01
2023-01-11T12:27:39.700Z,10.04
2023-01-11T12:28:39.819Z,10.08
2023-01-11T12:29:39.994Z,10.12
2023-01-11T12:30:40.117Z,10.10
2023-01-11T12:31:40.205Z,10.10
2023-01-11T12:32:40.352Z,10.09
2023-01-11T12:33:40.469Z,10.09
2023-01-11T12:34:40.671Z,10.08
2023-01-11T12:35:40.777Z,10.04
2023-01-11T12:36:40.896Z,10.00
2023-01-11T12:37:41.012Z,9.99
2023-01-11T12:38:41.144Z,9.98
2023-01-11T12:39:41.398Z,9.95
2023-01-11T12:40:41.413Z,9.92
2023-01-11T12:41:41.509Z,9.85
2023-01-11T12:42:41.618Z,9.76
2023-01-11T12:43:41.735Z,9.70
2023-01-11T12:44:41.885Z,9.66
2023-01-11T12:45:42.055Z,9.64
2023-01-11T12:46:42.111Z,9.63
2023-01-11T12:47:42.722Z,9.64
2023-01-11T12:48:42.262Z,9.62
2023-01-11T12:49:42.367Z,9.59
2023-01-11T12:50:42.474Z,9.57
2023-01-11T12:51:42.577Z,9.59
2023-01-11T12:52:42.694Z,9.64
2023-01-11T12:53:42.812Z,9.70
2023-01-11T12:54:42.904Z,9.73
2023-01-11T12:55:43.048Z,9.68
2023-01-11T12:56:43.143Z,9.62
2023-01-11T12:57:43.234Z,9.55
2023-01-11T12:58:43.365Z,9.48
2023-01-11T12:59:43.462Z,9.43
2023-01-11T13:00:43.685Z,9.41
2023-01-11T13:01:43.729Z,9.41
2023-01-11T13:02:43.927Z,9.41
2023-01-11T13:03:43.949Z,9.41
2023-01-11T13:04:44.124Z,9.41
2023-01-11T13:05:44.176Z,9.39
2023-01-11T13:06:44.427Z,9.38
2023-01-11T13:07:44.456Z,9.39
2023-01-11T13:08:44.507Z,9.40
2023-01-11T13:09:44.657Z,9.40
2023-01-11T13:10:44.732Z,9.40
2023-01-11T13:11:44.862Z,9.40
2023-01-11T13:12:44.935Z,9.41
2023-01-11T13:13:45.020Z,9.42
2023-01-11T13:14:45.213Z,9.44
2023-01-11T13:15:45.269Z,9.45
2023-01-11T13:16:45.399Z,9.46